Home > Products > Valid Products > MTR

000
SAUS46 KPDT 311652
MTRMEH
SPECI KMEH 311653Z AUTO VRB05KT 1 1/2SM -RA BR FEW009 SCT012 OVC019
03/02 A2997 RMK AO2 P0006





000
SAUS46 KPDT 311646
MTRMEH
SPECI KMEH 311642Z AUTO VRB05KT 1 1/2SM RA BR BKN009 BKN014 OVC023
04/02 A2996 RMK AO2 P0004 T00390022





000
SAUS46 KPDT 311641
MTRMEH
SPECI KMEH 311637Z AUTO VRB03KT 2SM -RA BR SCT009 BKN012 OVC023
04/02 A2995 RMK AO2 P0003 T00390022





000
SAUS46 KPDT 311611
MTRMEH
SPECI KMEH 311611Z AUTO 2SM -RA BR BKN008 OVC013 05/03 A2994 RMK AO2
CIG 006V010 P0001 T00500033





000
SAUS46 KPDT 311611
MTRMEH
SPECI KMEH 311611Z AUTO 2SM -RA BR BKN008 OVC013 05/03 A2994 RMK AO2
CIG 006V010 P0001 T00500033





000
SAUS46 KPDT 311602
MTRMEH
SPECI KMEH 311603Z AUTO VRB04KT 1 3/4SM -RA BR BKN008 OVC013 05/03
A2993 RMK AO2 CIG 006V011 P0001 T00500033





000
SAUS46 KPDT 311555
MTRMEH
METAR KMEH 311556Z AUTO VRB03KT 2 1/2SM -RA BR OVC010 05/03 A2993
RMK AO2 RAB1457 CIG 007V015 SLP141 P0002 T00500033





000
SAUS46 KPDT 311538
MTRMEH
SPECI KMEH 311539Z AUTO 00000KT 1 1/2SM -RA BR BKN013 OVC021 03/02
A2993 RMK AO2 RAB1457 P0001 T00330022





000
SAUS46 KPDT 311538
MTRMEH
SPECI KMEH 311539Z AUTO 00000KT 1 1/2SM -RA BR BKN013 OVC021 03/02
A2993 RMK AO2 RAB1457 P0001 T00330022





000
SAUS46 KPDT 311529
MTRMEH
SPECI KMEH 311530Z AUTO 00000KT 1 3/4SM -RA BR SCT014 OVC023 03/02
A2992 RMK AO2 RAB1457 P0000 T00330017





000
SAUS46 KPDT 311503
MTRMEH
SPECI KMEH 311504Z AUTO 00000KT 6SM -RA BR OVC026 03/01 A2991 RMK
AO2 RAB1457 P0000 T00280011





000
SAUS46 KPDT 311503
MTRMEH
SPECI KMEH 311504Z AUTO 00000KT 6SM -RA BR OVC026 03/01 A2991 RMK
AO2 RAB1457 P0000 T00280011





000
SAUS46 KPDT 311456
MTRMEH
METAR KMEH 311456Z AUTO 00000KT 8SM OVC030 02/01 A2991 RMK AO2
SLP136 T00220011 53005





000
SAUS46 KPDT 311456
MTRMEH
METAR KMEH 311456Z AUTO 00000KT 8SM OVC030 02/01 A2991 RMK AO2
SLP136 T00220011 53005





000
SAUS46 KPDT 311355
MTRMEH
METAR KMEH 311356Z AUTO 00000KT 9SM SCT031 BKN044 01/M01 A2990 RMK
AO2 SLP130 T00111006





000
SAUS46 KPDT 311355
MTRMEH
METAR KMEH 311356Z AUTO 00000KT 9SM SCT031 BKN044 01/M01 A2990 RMK
AO2 SLP130 T00111006





000
SAUS46 KPDT 311256
MTRMEH
METAR KMEH 311256Z AUTO 00000KT 10SM CLR 02/01 A2989 RMK AO2 SLP120
T00170006





000
SAUS46 KPDT 311256
MTRMEH
METAR KMEH 311256Z AUTO 00000KT 10SM CLR 02/01 A2989 RMK AO2 SLP120
T00170006





000
SAUS46 KPDT 311156
MTRMEH
METAR KMEH 311156Z AUTO 00000KT 10SM SCT100 04/02 A2989 RMK AO2
SLP117 T00390022 10078 20039 55003





000
SAUS46 KPDT 311156
MTRMEH
METAR KMEH 311156Z AUTO 00000KT 10SM SCT100 04/02 A2989 RMK AO2
SLP117 T00390022 10078 20039 55003





000
SAUS46 KPDT 311055
MTRMEH
METAR KMEH 311056Z AUTO 00000KT 10SM OVC100 07/03 A2989 RMK AO2
SLP112 T00670033





000
SAUS46 KPDT 311055
MTRMEH
METAR KMEH 311056Z AUTO 00000KT 10SM OVC100 07/03 A2989 RMK AO2
SLP112 T00670033





000
SAUS46 KPDT 310957
MTRMEH
METAR KMEH 310956Z AUTO 00000KT 10SM OVC095 07/04 A2990 RMK AO2
SLP113 T00670039





000
SAUS46 KPDT 310957
MTRMEH
METAR KMEH 310956Z AUTO 00000KT 10SM OVC095 07/04 A2990 RMK AO2
SLP113 T00670039





000
SAUS46 KPDT 310855
MTRMEH
METAR KMEH 310856Z AUTO 00000KT 10SM OVC100 04/03 A2991 RMK AO2
SLP118 T00440028 53002





000
SAUS46 KPDT 310855
MTRMEH
METAR KMEH 310856Z AUTO 00000KT 10SM OVC100 04/03 A2991 RMK AO2
SLP118 T00440028 53002





000
SAUS46 KPDT 310755
MTRMEH
METAR KMEH 310756Z AUTO 00000KT 10SM CLR 04/03 A2990 RMK AO2 SLP117
T00390028 402061022





000
SAUS46 KPDT 310656
MTRMEH
METAR KMEH 310656Z AUTO 00000KT 10SM CLR 04/03 A2989 RMK AO2 SLP115
T00440033





000
SAUS46 KPDT 310656
MTRMEH
METAR KMEH 310656Z AUTO 00000KT 10SM CLR 04/03 A2989 RMK AO2 SLP115
T00440033





000
SAUS46 KPDT 310600 COR
MTRMEH
METAR KMEH 310556Z AUTO 00000KT 10SM CLR 06/04 A2990 RMK AO2 SLP118
T00560039 10178 20056 58003





000
SAUS46 KPDT 310600 COR
MTRMEH
METAR KMEH 310556Z AUTO 00000KT 10SM CLR 06/04 A2990 RMK AO2 SLP118
T00560039 10178 20056 58003





000
SAUS46 KPDT 310556 COR
MTRMEH
METAR KMEH 310556Z AUTO 00000KT 10SM CLR 06/04 A2990 RMK AO2 SLP118
T00560039 10178 20056 58003





000
SAUS46 KPDT 310556 COR
MTRMEH
METAR KMEH 310556Z AUTO 00000KT 10SM CLR 06/04 A2990 RMK AO2 SLP118
T00560039 10178 20056 58003





000
SAUS46 KPDT 310555
MTRMEH
METAR KMEH 310556Z AUTO 00000KT 10SM CLR 06/04 A2990 RMK AO2 SLP118
T00560039 10178 20056 58003





000
SAUS46 KPDT 310555
MTRMEH
METAR KMEH 310556Z AUTO 00000KT 10SM CLR 06/04 A2990 RMK AO2 SLP118
T00560039 10178 20056 58003





000
SAUS46 KPDT 310456
MTRMEH
METAR KMEH 310456Z AUTO 00000KT 10SM FEW095 07/04 A2991 RMK AO2
SLP122 T00670044





000
SAUS46 KPDT 310456
MTRMEH
METAR KMEH 310456Z AUTO 00000KT 10SM FEW095 07/04 A2991 RMK AO2
SLP122 T00670044





000
SAUS46 KPDT 310356
MTRMEH
METAR KMEH 310356Z AUTO 00000KT 10SM SCT095 08/06 A2991 RMK AO2
SLP133 T00780056





000
SAUS46 KPDT 310257
MTRMEH
METAR KMEH 310256Z AUTO 00000KT 10SM FEW100 10/06 A2991 RMK AO2
SLP137 T01000061 58016





000
SAUS46 KPDT 310257
MTRMEH
METAR KMEH 310256Z AUTO 00000KT 10SM FEW100 10/06 A2991 RMK AO2
SLP137 T01000061 58016





000
SAUS46 KPDT 310155
MTRMEH
METAR KMEH 310156Z AUTO 00000KT 10SM CLR 13/06 A2992 RMK AO2 SLP140
T01280061





000
SAUS46 KPDT 310155
MTRMEH
METAR KMEH 310156Z AUTO 00000KT 10SM CLR 13/06 A2992 RMK AO2 SLP140
T01280061





000
SAUS46 KPDT 310055
MTRMEH
METAR KMEH 310056Z AUTO 00000KT 10SM CLR 16/06 A2995 RMK AO2 SLP146
T01560061





000
SAUS46 KPDT 310055
MTRMEH
METAR KMEH 310056Z AUTO 00000KT 10SM CLR 16/06 A2995 RMK AO2 SLP146
T01560061





000
SAUS46 KPDT 302355
MTRMEH
METAR KMEH 302356Z AUTO 00000KT 10SM CLR 18/06 A2996 RMK AO2 SLP147
T01780056 10206 20167 56024





000
SAUS46 KPDT 302355
MTRMEH
METAR KMEH 302356Z AUTO 00000KT 10SM CLR 18/06 A2996 RMK AO2 SLP147
T01780056 10206 20167 56024





000
SAUS46 KPDT 302255
MTRMEH
METAR KMEH 302256Z AUTO VRB03KT 10SM CLR 18/05 A2998 RMK AO2 SLP154
T01780050





000
SAUS46 KPDT 302255
MTRMEH
METAR KMEH 302256Z AUTO VRB03KT 10SM CLR 18/05 A2998 RMK AO2 SLP154
T01780050





000
SAUS46 KPDT 302157
MTRMEH
METAR KMEH 302156Z AUTO 00000KT 10SM CLR 18/04 A3001 RMK AO2 SLP162
T01830039





000
SAUS46 KPDT 302056
MTRMEH
METAR KMEH 302056Z AUTO VRB03KT 10SM CLR 20/M02 A3004 RMK AO2 SLP170
T02001022 58016





000
SAUS46 KPDT 302056
MTRMEH
METAR KMEH 302056Z AUTO VRB03KT 10SM CLR 20/M02 A3004 RMK AO2 SLP170
T02001022 58016





000
SAUS46 KPDT 301956
MTRMEH
METAR KMEH 301956Z AUTO VRB04KT 10SM CLR 19/00 A3006 RMK AO2 SLP175
T01940000





000
SAUS46 KPDT 301855
MTRMEH
METAR KMEH 301856Z AUTO VRB03KT 10SM CLR 18/01 A3007 RMK AO2 SLP182
T01780011





000
SAUS46 KPDT 301855
MTRMEH
METAR KMEH 301856Z AUTO VRB03KT 10SM CLR 18/01 A3007 RMK AO2 SLP182
T01780011





000
SAUS46 KPDT 301755
MTRMEH
METAR KMEH 301756Z AUTO 00000KT 10SM CLR 17/02 A3009 RMK AO2 SLP187
T01670022 10167 21022 58007





000
SAUS46 KPDT 301755
MTRMEH
METAR KMEH 301756Z AUTO 00000KT 10SM CLR 17/02 A3009 RMK AO2 SLP187
T01670022 10167 21022 58007





000
SAUS46 KPDT 301656
MTRMEH
METAR KMEH 301656Z AUTO 00000KT 10SM CLR 14/03 A3010 RMK AO2 SLP194
T01390028





000
SAUS46 KPDT 301656
MTRMEH
METAR KMEH 301656Z AUTO 00000KT 10SM CLR 14/03 A3010 RMK AO2 SLP194
T01390028





000
SAUS46 KPDT 301556
MTRMEH
METAR KMEH 301556Z AUTO 00000KT 10SM CLR 06/02 A3011 RMK AO2 SLP204
T00610022





000
SAUS46 KPDT 301455
MTRMEH
METAR KMEH 301456Z AUTO 00000KT 10SM CLR 00/M02 A3011 RMK AO2 SLP208
T00001017 55004





000
SAUS46 KPDT 301357
MTRMEH
METAR KMEH 301356Z AUTO 00000KT 10SM CLR M02/M03 A3011 RMK AO2
SLP209 T10221033





000
SAUS46 KPDT 301255
MTRMEH
METAR KMEH 301256Z AUTO 00000KT 10SM CLR M02/M03 A3011 RMK AO2
SLP206 T10171033





000
SAUS46 KPDT 301157
MTRMEH
METAR KMEH 301156Z AUTO 00000KT 10SM CLR M02/M03 A3013 RMK AO2
SLP207 T10171028 10033 21017 56009





000
SAUS46 KPDT 301157
MTRMEH
METAR KMEH 301156Z AUTO 00000KT 10SM CLR M02/M03 A3013 RMK AO2
SLP207 T10171028 10033 21017 56009





000
SAUS46 KPDT 301055
MTRMEH
METAR KMEH 301056Z AUTO 00000KT 10SM CLR M01/M03 A3013 RMK AO2
SLP208 T10111028





000
SAUS46 KPDT 301055
MTRMEH
METAR KMEH 301056Z AUTO 00000KT 10SM CLR M01/M03 A3013 RMK AO2
SLP208 T10111028





000
SAUS46 KPDT 300955
MTRMEH
METAR KMEH 300956Z AUTO 00000KT 10SM CLR M01/M02 A3015 RMK AO2
SLP213 T10111022





000
SAUS46 KPDT 300855
MTRMEH
METAR KMEH 300856Z AUTO 00000KT 10SM CLR 00/M02 A3016 RMK AO2 SLP215
T00001017 58005





000
SAUS46 KPDT 300855
MTRMEH
METAR KMEH 300856Z AUTO 00000KT 10SM CLR 00/M02 A3016 RMK AO2 SLP215
T00001017 58005





000
SAUS46 KPDT 300755
MTRMEH
METAR KMEH 300756Z AUTO 00000KT 10SM CLR 01/M01 A3016 RMK AO2 SLP217
T00111006 401721011





000
SAUS46 KPDT 300755
MTRMEH
METAR KMEH 300756Z AUTO 00000KT 10SM CLR 01/M01 A3016 RMK AO2 SLP217
T00111006 401721011





000
SAUS46 KPDT 300700
MTRMEH
METAR KMEH 300656Z AUTO 00000KT 10SM CLR 02/01 A3017 RMK AO2 SLP220
T00220006





000
SAUS46 KPDT 300700
MTRMEH
METAR KMEH 300656Z AUTO 00000KT 10SM CLR 02/01 A3017 RMK AO2 SLP220
T00220006





000
SAUS46 KPDT 300556
MTRMEH
METAR KMEH 300556Z AUTO 00000KT 10SM CLR 03/02 A3017 RMK AO2 SLP221
T00330017 10161 20033 58001





000
SAUS46 KPDT 300556
MTRMEH
METAR KMEH 300556Z AUTO 00000KT 10SM CLR 03/02 A3017 RMK AO2 SLP221
T00330017 10161 20033 58001





000
SAUS46 KPDT 300455
MTRMEH
METAR KMEH 300456Z AUTO 00000KT 10SM CLR 05/03 A3018 RMK AO2 SLP223
T00500028





000
SAUS46 KPDT 300455
MTRMEH
METAR KMEH 300456Z AUTO 00000KT 10SM CLR 05/03 A3018 RMK AO2 SLP223
T00500028





000
SAUS46 KPDT 300356
MTRMEH
METAR KMEH 300356Z AUTO 00000KT 10SM CLR 07/04 A3018 RMK AO2 SLP226
T00720039





000
SAUS46 KPDT 300256
MTRMEH
METAR KMEH 300256Z AUTO 00000KT 10SM CLR 09/04 A3018 RMK AO2 SLP228
T00940039 50001





000
SAUS46 KPDT 300256
MTRMEH
METAR KMEH 300256Z AUTO 00000KT 10SM CLR 09/04 A3018 RMK AO2 SLP228
T00940039 50001





000
SAUS46 KPDT 300155
MTRMEH
METAR KMEH 300156Z AUTO 00000KT 10SM CLR 11/04 A3018 RMK AO2 SLP230
T01110039





000
SAUS46 KPDT 300155
MTRMEH
METAR KMEH 300156Z AUTO 00000KT 10SM CLR 11/04 A3018 RMK AO2 SLP230
T01110039





000
SAUS46 KPDT 300055
MTRMEH
METAR KMEH 300056Z AUTO VRB03KT 10SM CLR 14/03 A3018 RMK AO2 SLP226
T01390028





000
SAUS46 KPDT 300055
MTRMEH
METAR KMEH 300056Z AUTO VRB03KT 10SM CLR 14/03 A3018 RMK AO2 SLP226
T01390028





000
SAUS46 KPDT 300000
MTRMEH
METAR KMEH 292356Z AUTO VRB03KT 10SM CLR 16/01 A3017 RMK AO2 SLP220
T01610011 10172 20128 56012





000
SAUS46 KPDT 300000
MTRMEH
METAR KMEH 292356Z AUTO VRB03KT 10SM CLR 16/01 A3017 RMK AO2 SLP220
T01610011 10172 20128 56012





000
SAUS46 KPDT 292256
MTRMEH
METAR KMEH 292256Z AUTO VRB03KT 10SM CLR 17/01 A3018 RMK AO2 SLP223
T01670006





000
SAUS46 KPDT 292256
MTRMEH
METAR KMEH 292256Z AUTO VRB03KT 10SM CLR 17/01 A3018 RMK AO2 SLP223
T01670006





000
SAUS46 KPDT 292156
MTRMEH
METAR KMEH 292156Z AUTO VRB04KT 10SM CLR 16/M01 A3020 RMK AO2 SLP231
T01611011





000
SAUS46 KPDT 292156
MTRMEH
METAR KMEH 292156Z AUTO VRB04KT 10SM CLR 16/M01 A3020 RMK AO2 SLP231
T01611011





000
SAUS46 KPDT 292055
MTRMEH
METAR KMEH 292056Z AUTO 00000KT 10SM CLR 17/M02 A3021 RMK AO2 SLP236
T01671022 56019





000
SAUS46 KPDT 292055
MTRMEH
METAR KMEH 292056Z AUTO 00000KT 10SM CLR 17/M02 A3021 RMK AO2 SLP236
T01671022 56019





000
SAUS46 KPDT 291956
MTRMEH
METAR KMEH 291956Z AUTO VRB04KT 10SM CLR 16/M03 A3023 RMK AO2 SLP243
T01561028





000
SAUS46 KPDT 291956
MTRMEH
METAR KMEH 291956Z AUTO VRB04KT 10SM CLR 16/M03 A3023 RMK AO2 SLP243
T01561028





000
SAUS46 KPDT 291855
MTRMEH
METAR KMEH 291856Z AUTO 00000KT 10SM CLR 14/M02 A3025 RMK AO2 SLP253
T01391022





000
SAUS46 KPDT 291855
MTRMEH
METAR KMEH 291856Z AUTO 00000KT 10SM CLR 14/M02 A3025 RMK AO2 SLP253
T01391022





000
SAUS46 KPDT 291756
MTRMEH
METAR KMEH 291756Z AUTO 26005KT 10SM CLR 13/M02 A3027 RMK AO2 SLP260
T01331022 10133 20006 53000





000
SAUS46 KPDT 291756
MTRMEH
METAR KMEH 291756Z AUTO 26005KT 10SM CLR 13/M02 A3027 RMK AO2 SLP260
T01331022 10133 20006 53000





000
SAUS46 KPDT 291657
MTRMEH
METAR KMEH 291656Z AUTO 00000KT 10SM CLR 11/00 A3027 RMK AO2 SLP261
T01110000





000
SAUS46 KPDT 291657
MTRMEH
METAR KMEH 291656Z AUTO 00000KT 10SM CLR 11/00 A3027 RMK AO2 SLP261
T01110000





000
SAUS46 KPDT 291555
MTRMEH
METAR KMEH 291556Z AUTO 00000KT 10SM FEW070 07/02 A3027 RMK AO2
SLP265 T00720022





000
SAUS46 KPDT 291555
MTRMEH
METAR KMEH 291556Z AUTO 00000KT 10SM FEW070 07/02 A3027 RMK AO2
SLP265 T00720022





000
SAUS46 KPDT 291455
MTRMEH
METAR KMEH 291456Z AUTO 00000KT 7SM BKN080 BKN090 02/01 A3027 RMK
AO2 SLP269 T00220011 56004





000
SAUS46 KPDT 291355
MTRMEH
METAR KMEH 291356Z AUTO 00000KT 10SM OVC095 01/00 A3028 RMK AO2
SLP268 T00110000





000
SAUS46 KPDT 291256
MTRMEH
METAR KMEH 291256Z AUTO 00000KT 10SM OVC110 01/M01 A3028 RMK AO2
SLP264 T00111006





000
SAUS46 KPDT 291256
MTRMEH
METAR KMEH 291256Z AUTO 00000KT 10SM OVC110 01/M01 A3028 RMK AO2
SLP264 T00111006





000
SAUS46 KPDT 291200
MTRMEH
METAR KMEH 291156Z AUTO 00000KT 10SM OVC110 01/M01 A3029 RMK AO2
SLP267 T00061006 10006 21017 56005





000
SAUS46 KPDT 291200
MTRMEH
METAR KMEH 291156Z AUTO 00000KT 10SM OVC110 01/M01 A3029 RMK AO2
SLP267 T00061006 10006 21017 56005





000
SAUS46 KPDT 291056
MTRMEH
METAR KMEH 291056Z AUTO 00000KT 10SM BKN100 00/M02 A3029 RMK AO2
SLP267 T00001017





000
SAUS46 KPDT 291056
MTRMEH
METAR KMEH 291056Z AUTO 00000KT 10SM BKN100 00/M02 A3029 RMK AO2
SLP267 T00001017





000
SAUS46 KPDT 290955
MTRMEH
METAR KMEH 290956Z AUTO 00000KT 10SM FEW110 M01/M02 A3029 RMK AO2
SLP270 T10061022





000
SAUS46 KPDT 290855
MTRMEH
METAR KMEH 290856Z AUTO 00000KT 10SM CLR M01/M02 A3030 RMK AO2
SLP277 T10111022 58004





000
SAUS46 KPDT 290756
MTRMEH
METAR KMEH 290756Z AUTO 00000KT 10SM CLR M01/M02 A3031 RMK AO2
SLP280 T10111022 401061017





000
SAUS46 KPDT 290756
MTRMEH
METAR KMEH 290756Z AUTO 00000KT 10SM CLR M01/M02 A3031 RMK AO2
SLP280 T10111022 401061017





000
SAUS46 KPDT 290701
MTRMEH
METAR KMEH 290656Z AUTO 00000KT 10SM CLR M02/M03 A3032 RMK AO2
SLP282 T10171028





000
SAUS46 KPDT 290555
MTRMEH
METAR KMEH 290556Z AUTO 00000KT 10SM CLR M01/M02 A3032 RMK AO2
SLP282 T10061022 10106 21006 58001





000
SAUS46 KPDT 290555
MTRMEH
METAR KMEH 290556Z AUTO 00000KT 10SM CLR M01/M02 A3032 RMK AO2
SLP282 T10061022 10106 21006 58001





000
SAUS46 KPDT 290456
MTRMEH
METAR KMEH 290456Z AUTO 00000KT 10SM CLR 01/M01 A3032 RMK AO2 SLP284
T00061011





000
SAUS46 KPDT 290456
MTRMEH
METAR KMEH 290456Z AUTO 00000KT 10SM CLR 01/M01 A3032 RMK AO2 SLP284
T00061011





000
SAUS46 KPDT 290400
MTRMEH
METAR KMEH 290356Z AUTO 00000KT 10SM CLR 02/M01 A3033 RMK AO2 SLP285
T00171006





000
SAUS46 KPDT 290256
MTRMEH
METAR KMEH 290256Z AUTO 00000KT 10SM CLR 04/01 A3032 RMK AO2 SLP282
T00390006 53004





000
SAUS46 KPDT 290200
MTRMEH
METAR KMEH 290156Z AUTO 00000KT 10SM CLR 08/01 A3031 RMK AO2 SLP277
T00780006





000
SAUS46 KPDT 290200
MTRMEH
METAR KMEH 290156Z AUTO 00000KT 10SM CLR 08/01 A3031 RMK AO2 SLP277
T00780006





000
SAUS46 KPDT 290057
MTRMEH
METAR KMEH 290056Z AUTO VRB04KT 10SM CLR 10/M02 A3030 RMK AO2 SLP269
T01001017





000
SAUS46 KPDT 290057
MTRMEH
METAR KMEH 290056Z AUTO VRB04KT 10SM CLR 10/M02 A3030 RMK AO2 SLP269
T01001017





000
SAUS46 KPDT 282356
MTRMEH
METAR KMEH 282356Z AUTO VRB03KT 10SM CLR 10/M02 A3031 RMK AO2 SLP269
T01001017 10106 20078 50003





000
SAUS46 KPDT 282356
MTRMEH
METAR KMEH 282356Z AUTO VRB03KT 10SM CLR 10/M02 A3031 RMK AO2 SLP269
T01001017 10106 20078 50003





000
SAUS46 KPDT 282257
MTRMEH
METAR KMEH 282256Z AUTO VRB06KT 10SM CLR 11/M01 A3031 RMK AO2 SLP269
T01061011





000
SAUS46 KPDT 282257
MTRMEH
METAR KMEH 282256Z AUTO VRB06KT 10SM CLR 11/M01 A3031 RMK AO2 SLP269
T01061011





000
SAUS46 KPDT 282155
MTRMEH
METAR KMEH 282156Z AUTO 30007KT 220V030 10SM FEW042 10/M01 A3030 RMK
AO2 SLP265 T01001011





000
SAUS46 KPDT 282155
MTRMEH
METAR KMEH 282156Z AUTO 30007KT 220V030 10SM FEW042 10/M01 A3030 RMK
AO2 SLP265 T01001011





000
SAUS46 KPDT 282056
MTRMEH
METAR KMEH 282056Z AUTO VRB06KT 10SM BKN041 09/M01 A3029 RMK AO2
SLP263 T00891011 50006





000
SAUS46 KPDT 281955
MTRMEH
METAR KMEH 281956Z AUTO VRB05KT 10SM BKN041 09/M01 A3030 RMK AO2
SLP260 T00891006





000
SAUS46 KPDT 281955
MTRMEH
METAR KMEH 281956Z AUTO VRB05KT 10SM BKN041 09/M01 A3030 RMK AO2
SLP260 T00891006





000
SAUS46 KPDT 281857
MTRMEH
METAR KMEH 281856Z AUTO VRB05G14KT 10SM SCT032 09/01 A3028 RMK AO2
SLP256 T00940006





000
SAUS46 KPDT 281857
MTRMEH
METAR KMEH 281856Z AUTO VRB05G14KT 10SM SCT032 09/01 A3028 RMK AO2
SLP256 T00940006





000
SAUS46 KPDT 281756
MTRMEH
METAR KMEH 281756Z AUTO 27009G16KT 10SM SCT032 08/01 A3027 RMK AO2
SLP251 60000 T00780006 10078 20033 51020





000
SAUS46 KPDT 281756
MTRMEH
METAR KMEH 281756Z AUTO 27009G16KT 10SM SCT032 08/01 A3027 RMK AO2
SLP251 60000 T00780006 10078 20033 51020





000
SAUS46 KPDT 281656
MTRMEH
METAR KMEH 281656Z AUTO 10SM SCT029 07/01 A3027 RMK AO2 SLP253
T00670006





000
SAUS46 KPDT 281656
MTRMEH
METAR KMEH 281656Z AUTO 10SM SCT029 07/01 A3027 RMK AO2 SLP253
T00670006





    US Dept of Commerce
    National Oceanic and Atmospheric Administration
    National Weather Service
    1325 East West Highway
    Silver Spring, MD 20910
    Page Author: NWS Internet Services Team
Disclaimer
Information Quality
Credits
Glossary
Privacy Policy
Freedom of Information Act (FOIA)
About Us
Career Opportunities